sensor_id;sensor_type;location;lat;lon;timestamp;pressure;altitude;pressure_sealevel;temperature;humidity
10310;BME280;5200;43.236;27.986;2022-08-18T00:02:01;99411.78;;;23.92;69.13
10310;BME280;5200;43.236;27.986;2022-08-18T00:04:29;99413.19;;;23.95;68.65
10310;BME280;5200;43.236;27.986;2022-08-18T00:06:56;99416.75;;;24.00;68.62
10310;BME280;5200;43.236;27.986;2022-08-18T00:09:23;99409.06;;;24.04;67.92
10310;BME280;5200;43.236;27.986;2022-08-18T00:11:50;99409.94;;;24.10;67.39
10310;BME280;5200;43.236;27.986;2022-08-18T00:14:19;99403.53;;;24.11;66.89
10310;BME280;5200;43.236;27.986;2022-08-18T00:16:46;99393.81;;;24.10;66.10
10310;BME280;5200;43.236;27.986;2022-08-18T00:19:14;99401.16;;;24.14;66.08
10310;BME280;5200;43.236;27.986;2022-08-18T00:21:41;99399.06;;;24.16;65.75
10310;BME280;5200;43.236;27.986;2022-08-18T00:24:08;99404.28;;;24.23;65.40
10310;BME280;5200;43.236;27.986;2022-08-18T00:26:35;99399.72;;;24.23;65.48
10310;BME280;5200;43.236;27.986;2022-08-18T00:29:02;99401.91;;;24.26;64.73
10310;BME280;5200;43.236;27.986;2022-08-18T00:31:29;99406.56;;;24.31;64.18
10310;BME280;5200;43.236;27.986;2022-08-18T00:33:56;99403.16;;;24.36;63.76
10310;BME280;5200;43.236;27.986;2022-08-18T00:36:25;99402.19;;;24.42;63.04
10310;BME280;5200;43.236;27.986;2022-08-18T00:38:52;99409.31;;;24.48;62.80
10310;BME280;5200;43.236;27.986;2022-08-18T00:41:20;99406.94;;;24.52;62.95
10310;BME280;5200;43.236;27.986;2022-08-18T00:43:49;99405.88;;;24.53;62.85
10310;BME280;5200;43.236;27.986;2022-08-18T00:46:18;99410.22;;;24.54;63.02
10310;BME280;5200;43.236;27.986;2022-08-18T00:48:46;99408.56;;;24.53;62.75
10310;BME280;5200;43.236;27.986;2022-08-18T00:51:17;99409.16;;;24.55;62.89
10310;BME280;5200;43.236;27.986;2022-08-18T00:53:51;99409.22;;;24.60;62.53
10310;BME280;5200;43.236;27.986;2022-08-18T00:56:22;99411.91;;;24.60;62.31
10310;BME280;5200;43.236;27.986;2022-08-18T00:58:57;99406.78;;;24.58;62.64
10310;BME280;5200;43.236;27.986;2022-08-18T01:01:28;99402.16;;;24.54;62.51
10310;BME280;5200;43.236;27.986;2022-08-18T01:04:00;99415.44;;;24.60;62.45
10310;BME280;5200;43.236;27.986;2022-08-18T01:06:36;99406.31;;;24.61;62.21
10310;BME280;5200;43.236;27.986;2022-08-18T01:09:06;99409.00;;;24.61;62.13
10310;BME280;5200;43.236;27.986;2022-08-18T01:11:34;99410.88;;;24.61;61.88
10310;BME280;5200;43.236;27.986;2022-08-18T01:14:03;99411.69;;;24.61;61.54
10310;BME280;5200;43.236;27.986;2022-08-18T01:16:31;99412.50;;;24.62;61.70
10310;BME280;5200;43.236;27.986;2022-08-18T01:19:16;99414.13;;;24.63;61.19
10310;BME280;5200;43.236;27.986;2022-08-18T01:22:07;99408.25;;;24.66;60.47
10310;BME280;5200;43.236;27.986;2022-08-18T01:24:39;99415.75;;;24.64;63.50
10310;BME280;5200;43.236;27.986;2022-08-18T01:27:24;99419.31;;;24.53;65.05
10310;BME280;5200;43.236;27.986;2022-08-18T01:30:00;99419.84;;;24.38;66.80
10310;BME280;5200;43.236;27.986;2022-08-18T01:32:28;99422.59;;;24.26;67.04
10310;BME280;5200;43.236;27.986;2022-08-18T01:34:54;99424.06;;;24.17;66.85
10310;BME280;5200;43.236;27.986;2022-08-18T01:37:22;99426.16;;;24.15;66.41
10310;BME280;5200;43.236;27.986;2022-08-18T01:39:51;99419.75;;;24.16;65.70
10310;BME280;5200;43.236;27.986;2022-08-18T01:42:18;99413.16;;;24.23;63.62
10310;BME280;5200;43.236;27.986;2022-08-18T01:44:47;99413.75;;;24.25;63.44
10310;BME280;5200;43.236;27.986;2022-08-18T01:47:16;99412.03;;;24.36;62.89
10310;BME280;5200;43.236;27.986;2022-08-18T01:49:43;99408.38;;;24.42;62.99
10310;BME280;5200;43.236;27.986;2022-08-18T01:52:14;99398.44;;;24.43;63.00
10310;BME280;5200;43.236;27.986;2022-08-18T01:54:42;99391.31;;;24.49;62.39
10310;BME280;5200;43.236;27.986;2022-08-18T01:57:10;99390.75;;;24.46;62.19
10310;BME280;5200;43.236;27.986;2022-08-18T01:59:39;99399.97;;;24.51;62.09
10310;BME280;5200;43.236;27.986;2022-08-18T02:02:06;99395.47;;;24.56;62.00
10310;BME280;5200;43.236;27.986;2022-08-18T02:04:34;99401.34;;;24.53;61.54
10310;BME280;5200;43.236;27.986;2022-08-18T02:07:05;99403.78;;;24.55;61.89
10310;BME280;5200;43.236;27.986;2022-08-18T02:09:33;99405.88;;;24.53;61.93
10310;BME280;5200;43.236;27.986;2022-08-18T02:12:02;99401.00;;;24.50;61.98
10310;BME280;5200;43.236;27.986;2022-08-18T02:14:31;99397.13;;;24.45;62.16
10310;BME280;5200;43.236;27.986;2022-08-18T02:17:00;99403.00;;;24.42;62.09
10310;BME280;5200;43.236;27.986;2022-08-18T02:19:31;99403.00;;;24.42;62.41
10310;BME280;5200;43.236;27.986;2022-08-18T02:21:58;99400.47;;;24.36;62.35
10310;BME280;5200;43.236;27.986;2022-08-18T02:24:25;99411.47;;;24.34;62.41
10310;BME280;5200;43.236;27.986;2022-08-18T02:26:52;99409.84;;;24.33;62.91
10310;BME280;5200;43.236;27.986;2022-08-18T02:29:19;99404.75;;;24.20;62.98
10310;BME280;5200;43.236;27.986;2022-08-18T02:31:48;99409.16;;;24.26;63.65
10310;BME280;5200;43.236;27.986;2022-08-18T02:34:15;99414.03;;;24.12;64.28
10310;BME280;5200;43.236;27.986;2022-08-18T02:36:42;99418.41;;;24.01;64.73
10310;BME280;5200;43.236;27.986;2022-08-18T02:39:09;99410.53;;;23.83;65.40
10310;BME280;5200;43.236;27.986;2022-08-18T02:41:36;99409.28;;;23.74;66.38
10310;BME280;5200;43.236;27.986;2022-08-18T02:44:05;99417.66;;;23.66;66.17
10310;BME280;5200;43.236;27.986;2022-08-18T02:46:32;99361.81;;;23.39;66.30
10310;BME280;5200;43.236;27.986;2022-08-18T02:49:01;99413.59;;;23.75;65.82
10310;BME280;5200;43.236;27.986;2022-08-18T02:51:28;99409.84;;;23.76;64.78
10310;BME280;5200;43.236;27.986;2022-08-18T02:53:55;99403.50;;;23.82;64.45
10310;BME280;5200;43.236;27.986;2022-08-18T02:56:25;99419.72;;;23.99;63.68
10310;BME280;5200;43.236;27.986;2022-08-18T02:58:56;99419.88;;;24.09;63.10
10310;BME280;5200;43.236;27.986;2022-08-18T03:01:25;99423.81;;;24.18;62.92
10310;BME280;5200;43.236;27.986;2022-08-18T03:03:53;99420.31;;;24.18;62.94
10310;BME280;5200;43.236;27.986;2022-08-18T03:06:22;99413.31;;;24.17;63.13
10310;BME280;5200;43.236;27.986;2022-08-18T03:08:50;99421.72;;;24.20;62.67
10310;BME280;5200;43.236;27.986;2022-08-18T03:11:20;99420.41;;;24.23;62.47
10310;BME280;5200;43.236;27.986;2022-08-18T03:13:48;99425.88;;;24.28;62.29
10310;BME280;5200;43.236;27.986;2022-08-18T03:16:16;99434.09;;;24.38;61.54
10310;BME280;5200;43.236;27.986;2022-08-18T03:18:44;99422.41;;;24.44;61.45
10310;BME280;5200;43.236;27.986;2022-08-18T03:21:13;99423.59;;;24.49;61.09
10310;BME280;5200;43.236;27.986;2022-08-18T03:23:43;99431.50;;;24.55;61.33
10310;BME280;5200;43.236;27.986;2022-08-18T03:26:12;99432.88;;;24.58;61.53
10310;BME280;5200;43.236;27.986;2022-08-18T03:28:41;99430.44;;;24.56;61.51
10310;BME280;5200;43.236;27.986;2022-08-18T03:31:10;99432.88;;;24.58;61.61
10310;BME280;5200;43.236;27.986;2022-08-18T03:33:39;99448.19;;;24.57;61.62
10310;BME280;5200;43.236;27.986;2022-08-18T03:36:08;99444.09;;;24.55;61.95
10310;BME280;5200;43.236;27.986;2022-08-18T03:38:37;99447.88;;;24.54;62.14
10310;BME280;5200;43.236;27.986;2022-08-18T03:41:06;99456.50;;;24.56;62.14
10310;BME280;5200;43.236;27.986;2022-08-18T03:43:34;99455.13;;;24.53;62.25
10310;BME280;5200;43.236;27.986;2022-08-18T03:46:02;99453.72;;;24.51;62.58
10310;BME280;5200;43.236;27.986;2022-08-18T03:48:29;99458.53;;;24.49;62.88
10310;BME280;5200;43.236;27.986;2022-08-18T03:51:01;99466.72;;;24.42;63.19
10310;BME280;5200;43.236;27.986;2022-08-18T03:53:28;99473.41;;;24.39;63.71
10310;BME280;5200;43.236;27.986;2022-08-18T03:55:56;99481.38;;;24.34;64.04
10310;BME280;5200;43.236;27.986;2022-08-18T03:58:25;99481.25;;;24.29;64.33
10310;BME280;5200;43.236;27.986;2022-08-18T04:00:52;99488.75;;;24.27;64.53
10310;BME280;5200;43.236;27.986;2022-08-18T04:03:19;99483.28;;;24.22;64.66
10310;BME280;5200;43.236;27.986;2022-08-18T04:05:46;99489.81;;;24.26;64.93
10310;BME280;5200;43.236;27.986;2022-08-18T04:08:13;99486.53;;;24.24;65.27
10310;BME280;5200;43.236;27.986;2022-08-18T04:10:42;99498.31;;;24.35;65.36
10310;BME280;5200;43.236;27.986;2022-08-18T04:13:09;99496.44;;;24.35;65.62
10310;BME280;5200;43.236;27.986;2022-08-18T04:15:37;99506.84;;;24.32;65.74
10310;BME280;5200;43.236;27.986;2022-08-18T04:18:04;99510.50;;;24.25;65.91
10310;BME280;5200;43.236;27.986;2022-08-18T04:20:33;99512.38;;;24.25;65.83
10310;BME280;5200;43.236;27.986;2022-08-18T04:23:00;99517.25;;;24.28;65.81
10310;BME280;5200;43.236;27.986;2022-08-18T04:25:27;99524.47;;;24.39;65.83
10310;BME280;5200;43.236;27.986;2022-08-18T04:27:57;99526.19;;;24.45;65.03
10310;BME280;5200;43.236;27.986;2022-08-18T04:30:26;99536.94;;;24.45;64.67
10310;BME280;5200;43.236;27.986;2022-08-18T04:32:55;99529.13;;;24.56;64.03
10310;BME280;5200;43.236;27.986;2022-08-18T04:35:21;99533.03;;;24.65;63.36
10310;BME280;5200;43.236;27.986;2022-08-18T04:37:48;99537.53;;;24.76;63.77
10310;BME280;5200;43.236;27.986;2022-08-18T04:40:15;99542.03;;;24.87;62.44
10310;BME280;5200;43.236;27.986;2022-08-18T04:42:42;99545.47;;;25.00;62.63
10310;BME280;5200;43.236;27.986;2022-08-18T04:45:10;99532.19;;;25.10;62.55
10310;BME280;5200;43.236;27.986;2022-08-18T04:47:37;99539.66;;;25.20;62.36
10310;BME280;5200;43.236;27.986;2022-08-18T04:50:08;99540.06;;;25.28;61.80
10310;BME280;5200;43.236;27.986;2022-08-18T04:52:36;99534.91;;;25.27;62.56
10310;BME280;5200;43.236;27.986;2022-08-18T04:55:20;99546.09;;;25.36;62.58
10310;BME280;5200;43.236;27.986;2022-08-18T04:57:47;99543.97;;;25.38;63.00
10310;BME280;5200;43.236;27.986;2022-08-18T05:00:14;99532.06;;;25.34;62.84
10310;BME280;5200;43.236;27.986;2022-08-18T05:02:41;99544.63;;;25.45;63.03
10310;BME280;5200;43.236;27.986;2022-08-18T05:05:09;99549.50;;;25.48;62.82
10310;BME280;5200;43.236;27.986;2022-08-18T05:07:42;99549.63;;;25.58;62.87
10310;BME280;5200;43.236;27.986;2022-08-18T05:10:10;99560.88;;;25.72;63.36
10310;BME280;5200;43.236;27.986;2022-08-18T05:12:39;99548.13;;;26.01;63.30
10310;BME280;5200;43.236;27.986;2022-08-18T05:15:08;99561.19;;;26.59;62.57
10310;BME280;5200;43.236;27.986;2022-08-18T05:17:35;99559.31;;;27.18;61.19
10310;BME280;5200;43.236;27.986;2022-08-18T05:20:05;99559.50;;;27.81;59.67
10310;BME280;5200;43.236;27.986;2022-08-18T05:22:37;99550.03;;;28.32;58.47
10310;BME280;5200;43.236;27.986;2022-08-18T05:25:07;99548.53;;;28.82;56.88
10310;BME280;5200;43.236;27.986;2022-08-18T05:27:39;99542.31;;;29.38;54.22
10310;BME280;5200;43.236;27.986;2022-08-18T05:30:08;99544.44;;;29.66;52.23
10310;BME280;5200;43.236;27.986;2022-08-18T05:32:39;99538.75;;;29.58;52.01
10310;BME280;5200;43.236;27.986;2022-08-18T05:35:10;99545.81;;;29.59;52.84
10310;BME280;5200;43.236;27.986;2022-08-18T05:37:49;99543.09;;;29.69;52.54
10310;BME280;5200;43.236;27.986;2022-08-18T05:40:22;99531.16;;;29.60;51.74
10310;BME280;5200;43.236;27.986;2022-08-18T05:42:50;99540.91;;;29.61;52.95
10310;BME280;5200;43.236;27.986;2022-08-18T05:45:18;99536.81;;;29.79;52.26
10310;BME280;5200;43.236;27.986;2022-08-18T05:47:45;99542.44;;;30.03;51.24
10310;BME280;5200;43.236;27.986;2022-08-18T05:50:15;99535.84;;;30.29;51.07
10310;BME280;5200;43.236;27.986;2022-08-18T05:52:50;99534.56;;;30.61;50.48
10310;BME280;5200;43.236;27.986;2022-08-18T05:55:22;99536.91;;;30.73;49.57
10310;BME280;5200;43.236;27.986;2022-08-18T05:58:12;99547.88;;;30.97;49.07
10310;BME280;5200;43.236;27.986;2022-08-18T06:00:45;99542.56;;;31.16;48.59
10310;BME280;5200;43.236;27.986;2022-08-18T06:03:20;99545.53;;;31.20;47.80
10310;BME280;5200;43.236;27.986;2022-08-18T06:05:52;99541.53;;;31.12;48.11
10310;BME280;5200;43.236;27.986;2022-08-18T06:08:26;99543.31;;;31.27;48.55
10310;BME280;5200;43.236;27.986;2022-08-18T06:10:54;99533.56;;;31.21;48.55
10310;BME280;5200;43.236;27.986;2022-08-18T06:13:21;99536.81;;;31.23;48.70
10310;BME280;5200;43.236;27.986;2022-08-18T06:15:51;99532.31;;;31.37;48.93
10310;BME280;5200;43.236;27.986;2022-08-18T06:18:39;99539.09;;;31.39;48.92
10310;BME280;5200;43.236;27.986;2022-08-18T06:21:22;99541.91;;;31.29;49.45
10310;BME280;5200;43.236;27.986;2022-08-18T06:24:04;99548.72;;;31.61;48.45
10310;BME280;5200;43.236;27.986;2022-08-18T06:26:38;99537.75;;;31.90;47.92
10310;BME280;5200;43.236;27.986;2022-08-18T06:29:16;99542.91;;;32.16;47.44
10310;BME280;5200;43.236;27.986;2022-08-18T06:31:56;99542.25;;;32.43;47.14
10310;BME280;5200;43.236;27.986;2022-08-18T06:34:36;99548.19;;;32.69;46.42
10310;BME280;5200;43.236;27.986;2022-08-18T06:37:12;99551.09;;;32.92;45.04
10310;BME280;5200;43.236;27.986;2022-08-18T06:39:46;99548.47;;;33.05;45.12
10310;BME280;5200;43.236;27.986;2022-08-18T06:42:16;99545.69;;;33.24;44.87
10310;BME280;5200;43.236;27.986;2022-08-18T06:44:46;99548.56;;;33.47;44.12
10310;BME280;5200;43.236;27.986;2022-08-18T06:47:19;99547.25;;;33.58;43.79
10310;BME280;5200;43.236;27.986;2022-08-18T06:49:58;99546.47;;;33.72;43.15
10310;BME280;5200;43.236;27.986;2022-08-18T06:52:31;99549.31;;;33.94;42.63
10310;BME280;5200;43.236;27.986;2022-08-18T06:55:04;99549.53;;;34.12;42.04
10310;BME280;5200;43.236;27.986;2022-08-18T06:57:34;99559.94;;;34.09;41.97
10310;BME280;5200;43.236;27.986;2022-08-18T07:00:08;99552.47;;;34.15;41.59
10310;BME280;5200;43.236;27.986;2022-08-18T07:02:48;99549.00;;;34.09;41.56
10310;BME280;5200;43.236;27.986;2022-08-18T07:05:22;99553.94;;;33.94;41.76
10310;BME280;5200;43.236;27.986;2022-08-18T07:08:10;99551.53;;;33.78;42.09
10310;BME280;5200;43.236;27.986;2022-08-18T07:10:42;99547.50;;;33.76;42.19
10310;BME280;5200;43.236;27.986;2022-08-18T07:13:19;99549.22;;;33.72;42.37
10310;BME280;5200;43.236;27.986;2022-08-18T07:15:47;99554.44;;;33.54;42.70
10310;BME280;5200;43.236;27.986;2022-08-18T07:18:21;99551.28;;;33.47;42.96
10310;BME280;5200;43.236;27.986;2022-08-18T07:20:50;99557.13;;;33.40;43.15
10310;BME280;5200;43.236;27.986;2022-08-18T07:23:25;99555.84;;;33.52;43.08
10310;BME280;5200;43.236;27.986;2022-08-18T07:26:02;99559.72;;;33.64;42.56
10310;BME280;5200;43.236;27.986;2022-08-18T07:28:32;99557.84;;;33.46;42.80
10310;BME280;5200;43.236;27.986;2022-08-18T07:31:19;99561.13;;;33.62;42.87
10310;BME280;5200;43.236;27.986;2022-08-18T07:33:52;99557.09;;;33.87;41.99
10310;BME280;5200;43.236;27.986;2022-08-18T07:36:24;99564.56;;;33.95;41.61
10310;BME280;5200;43.236;27.986;2022-08-18T07:38:57;99568.09;;;33.96;42.10
10310;BME280;5200;43.236;27.986;2022-08-18T07:41:31;99562.13;;;34.07;41.75
10310;BME280;5200;43.236;27.986;2022-08-18T07:44:16;99557.28;;;34.18;41.44
10310;BME280;5200;43.236;27.986;2022-08-18T07:46:52;99560.13;;;34.27;41.47
10310;BME280;5200;43.236;27.986;2022-08-18T07:49:25;99561.94;;;34.31;41.13
10310;BME280;5200;43.236;27.986;2022-08-18T07:51:57;99570.19;;;34.40;40.80
10310;BME280;5200;43.236;27.986;2022-08-18T07:54:42;99564.72;;;34.40;40.69
10310;BME280;5200;43.236;27.986;2022-08-18T07:57:20;99556.66;;;34.35;40.58
10310;BME280;5200;43.236;27.986;2022-08-18T07:59:56;99560.00;;;34.32;40.42
10310;BME280;5200;43.236;27.986;2022-08-18T08:02:35;99553.22;;;34.43;40.37
10310;BME280;5200;43.236;27.986;2022-08-18T08:05:11;99549.19;;;34.41;40.64
10310;BME280;5200;43.236;27.986;2022-08-18T08:07:48;99553.59;;;34.50;40.22
10310;BME280;5200;43.236;27.986;2022-08-18T08:10:29;99542.84;;;34.54;40.41
10310;BME280;5200;43.236;27.986;2022-08-18T08:13:08;99545.69;;;34.49;40.40
10310;BME280;5200;43.236;27.986;2022-08-18T08:15:47;99548.44;;;34.49;40.25
10310;BME280;5200;43.236;27.986;2022-08-18T08:18:24;99544.91;;;34.48;40.61
10310;BME280;5200;43.236;27.986;2022-08-18T08:21:00;99547.63;;;34.48;40.39
10310;BME280;5200;43.236;27.986;2022-08-18T08:23:34;99547.38;;;34.59;40.50
10310;BME280;5200;43.236;27.986;2022-08-18T08:26:22;99550.59;;;34.75;40.02
10310;BME280;5200;43.236;27.986;2022-08-18T08:29:03;99546.94;;;34.79;39.50
10310;BME280;5200;43.236;27.986;2022-08-18T08:31:40;99550.31;;;34.76;39.97
10310;BME280;5200;43.236;27.986;2022-08-18T08:34:15;99551.28;;;34.80;40.20
10310;BME280;5200;43.236;27.986;2022-08-18T08:36:45;99540.59;;;34.70;40.32
10310;BME280;5200;43.236;27.986;2022-08-18T08:39:19;99544.66;;;34.59;40.61
10310;BME280;5200;43.236;27.986;2022-08-18T08:41:51;99537.81;;;34.47;41.05
10310;BME280;5200;43.236;27.986;2022-08-18T08:44:25;99545.72;;;34.35;41.29
10310;BME280;5200;43.236;27.986;2022-08-18T08:46:57;99545.38;;;34.14;41.53
10310;BME280;5200;43.236;27.986;2022-08-18T08:49:34;99548.81;;;33.92;41.71
10310;BME280;5200;43.236;27.986;2022-08-18T08:52:07;99542.94;;;33.99;41.82
10310;BME280;5200;43.236;27.986;2022-08-18T08:54:43;99548.75;;;34.34;41.31
10310;BME280;5200;43.236;27.986;2022-08-18T08:57:13;99537.81;;;34.47;40.56
10310;BME280;5200;43.236;27.986;2022-08-18T08:59:44;99540.25;;;34.49;40.31
10310;BME280;5200;43.236;27.986;2022-08-18T09:02:27;99544.56;;;34.50;40.42
10310;BME280;5200;43.236;27.986;2022-08-18T09:05:05;99545.31;;;34.42;40.41
10310;BME280;5200;43.236;27.986;2022-08-18T09:07:43;99537.66;;;34.30;40.64
10310;BME280;5200;43.236;27.986;2022-08-18T09:10:32;99531.53;;;34.47;40.39
10310;BME280;5200;43.236;27.986;2022-08-18T09:13:22;99534.00;;;34.71;40.76
10310;BME280;5200;43.236;27.986;2022-08-18T09:16:07;99533.72;;;34.59;40.26
10310;BME280;5200;43.236;27.986;2022-08-18T09:18:45;99532.44;;;34.56;40.52
10310;BME280;5200;43.236;27.986;2022-08-18T09:21:25;99530.31;;;34.67;40.85
10310;BME280;5200;43.236;27.986;2022-08-18T09:24:04;99532.78;;;35.00;39.82
10310;BME280;5200;43.236;27.986;2022-08-18T09:26:41;99537.72;;;35.11;39.39
10310;BME280;5200;43.236;27.986;2022-08-18T09:29:16;99535.81;;;34.98;39.29
10310;BME280;5200;43.236;27.986;2022-08-18T09:31:45;99540.84;;;34.82;39.28
10310;BME280;5200;43.236;27.986;2022-08-18T09:34:36;99544.31;;;34.97;39.29
10310;BME280;5200;43.236;27.986;2022-08-18T09:37:14;99547.56;;;35.21;38.90
10310;BME280;5200;43.236;27.986;2022-08-18T09:39:48;99540.34;;;35.25;39.07
10310;BME280;5200;43.236;27.986;2022-08-18T09:42:38;99535.88;;;35.29;39.20
10310;BME280;5200;43.236;27.986;2022-08-18T09:45:41;99543.78;;;34.86;40.09
10310;BME280;5200;43.236;27.986;2022-08-18T09:48:24;99543.44;;;34.15;40.88
10310;BME280;5200;43.236;27.986;2022-08-18T09:50:56;99535.25;;;33.59;42.59
10310;BME280;5200;43.236;27.986;2022-08-18T09:53:52;99545.06;;;33.27;44.00
10310;BME280;5200;43.236;27.986;2022-08-18T10:05:38;99540.63;;;33.18;45.61
10310;BME280;5200;43.236;27.986;2022-08-18T10:08:34;99535.81;;;33.29;44.50
10310;BME280;5200;43.236;27.986;2022-08-18T10:11:21;99540.91;;;33.49;43.83
10310;BME280;5200;43.236;27.986;2022-08-18T10:14:02;99539.47;;;33.38;45.54
10310;BME280;5200;43.236;27.986;2022-08-18T10:16:41;99540.00;;;32.88;45.73
10310;BME280;5200;43.236;27.986;2022-08-18T10:19:16;99537.78;;;32.33;47.95
10310;BME280;5200;43.236;27.986;2022-08-18T10:22:05;99551.38;;;32.14;47.84
10310;BME280;5200;43.236;27.986;2022-08-18T10:24:35;99552.03;;;31.53;48.90
10310;BME280;5200;43.236;27.986;2022-08-18T10:27:05;99550.00;;;31.34;48.96
10310;BME280;5200;43.236;27.986;2022-08-18T10:29:52;99543.38;;;30.82;49.51
10310;BME280;5200;43.236;27.986;2022-08-18T10:32:41;99553.53;;;30.11;52.90
10310;BME280;5200;43.236;27.986;2022-08-18T10:38:53;99551.03;;;30.25;54.75
10310;BME280;5200;43.236;27.986;2022-08-18T10:41:26;99560.53;;;30.72;54.12
10310;BME280;5200;43.236;27.986;2022-08-18T10:43:55;99553.28;;;30.03;55.50
10310;BME280;5200;43.236;27.986;2022-08-18T10:46:24;99550.63;;;29.87;54.44
10310;BME280;5200;43.236;27.986;2022-08-18T10:49:16;99563.59;;;30.06;58.38
10310;BME280;5200;43.236;27.986;2022-08-18T10:52:07;99561.50;;;29.82;58.59
10310;BME280;5200;43.236;27.986;2022-08-18T10:58:03;99558.59;;;29.17;62.36
10310;BME280;5200;43.236;27.986;2022-08-18T11:00:48;99553.41;;;29.41;62.25
10310;BME280;5200;43.236;27.986;2022-08-18T11:03:29;99558.84;;;29.31;62.57
10310;BME280;5200;43.236;27.986;2022-08-18T11:06:02;99552.91;;;29.24;61.02
10310;BME280;5200;43.236;27.986;2022-08-18T11:08:32;99557.75;;;29.27;60.06
10310;BME280;5200;43.236;27.986;2022-08-18T11:11:07;99562.06;;;29.54;59.03
10310;BME280;5200;43.236;27.986;2022-08-18T11:13:53;99566.97;;;29.52;59.16
10310;BME280;5200;43.236;27.986;2022-08-18T11:16:31;99562.34;;;29.37;60.18
10310;BME280;5200;43.236;27.986;2022-08-18T11:19:07;99555.31;;;29.05;61.90
10310;BME280;5200;43.236;27.986;2022-08-18T11:21:40;99558.81;;;29.00;61.97
10310;BME280;5200;43.236;27.986;2022-08-18T11:24:12;99555.50;;;28.47;66.15
10310;BME280;5200;43.236;27.986;2022-08-18T11:26:44;99553.47;;;28.22;65.89
10310;BME280;5200;43.236;27.986;2022-08-18T11:29:23;99540.25;;;28.20;68.34
10310;BME280;5200;43.236;27.986;2022-08-18T11:31:54;99544.69;;;28.52;64.88
10310;BME280;5200;43.236;27.986;2022-08-18T11:34:28;99546.06;;;28.75;66.34
10310;BME280;5200;43.236;27.986;2022-08-18T11:37:06;99552.31;;;29.06;65.82
10310;BME280;5200;43.236;27.986;2022-08-18T11:39:46;99548.00;;;29.16;65.29
10310;BME280;5200;43.236;27.986;2022-08-18T11:42:17;99537.16;;;29.21;63.21
10310;BME280;5200;43.236;27.986;2022-08-18T11:44:45;99548.56;;;29.28;63.90
10310;BME280;5200;43.236;27.986;2022-08-18T11:47:15;99542.03;;;29.34;62.63
10310;BME280;5200;43.236;27.986;2022-08-18T11:49:53;99547.47;;;29.24;64.78
10310;BME280;5200;43.236;27.986;2022-08-18T11:52:23;99545.03;;;29.22;64.25
10310;BME280;5200;43.236;27.986;2022-08-18T11:54:51;99537.19;;;29.26;64.03
10310;BME280;5200;43.236;27.986;2022-08-18T11:57:37;99536.06;;;28.71;65.11
10310;BME280;5200;43.236;27.986;2022-08-18T12:00:34;99542.28;;;28.66;67.57
10310;BME280;5200;43.236;27.986;2022-08-18T12:03:02;99545.81;;;28.77;62.03
10310;BME280;5200;43.236;27.986;2022-08-18T12:05:40;99551.19;;;28.51;60.15
10310;BME280;5200;43.236;27.986;2022-08-18T12:08:19;99553.22;;;28.18;61.97
10310;BME280;5200;43.236;27.986;2022-08-18T12:10:48;99535.84;;;27.99;66.01
10310;BME280;5200;43.236;27.986;2022-08-18T12:13:28;99540.41;;;27.98;67.28
10310;BME280;5200;43.236;27.986;2022-08-18T12:16:14;99534.06;;;28.40;65.54
10310;BME280;5200;43.236;27.986;2022-08-18T12:18:41;99530.13;;;28.84;64.11
10310;BME280;5200;43.236;27.986;2022-08-18T12:21:08;99528.50;;;28.98;63.73
10310;BME280;5200;43.236;27.986;2022-08-18T12:23:38;99533.84;;;28.57;65.69
10310;BME280;5200;43.236;27.986;2022-08-18T12:26:06;99540.19;;;28.10;68.78
10310;BME280;5200;43.236;27.986;2022-08-18T12:28:35;99548.25;;;27.95;67.52
10310;BME280;5200;43.236;27.986;2022-08-18T12:31:02;99541.72;;;27.91;68.15
10310;BME280;5200;43.236;27.986;2022-08-18T12:33:29;99535.88;;;28.09;67.63
10310;BME280;5200;43.236;27.986;2022-08-18T12:35:56;99535.94;;;28.30;67.23
10310;BME280;5200;43.236;27.986;2022-08-18T12:38:24;99524.66;;;28.48;67.29
10310;BME280;5200;43.236;27.986;2022-08-18T12:40:51;99519.81;;;28.60;66.89
10310;BME280;5200;43.236;27.986;2022-08-18T12:43:18;99529.53;;;28.51;66.93
10310;BME280;5200;43.236;27.986;2022-08-18T12:45:47;99534.34;;;28.39;67.79
10310;BME280;5200;43.236;27.986;2022-08-18T12:48:14;99534.84;;;28.25;67.58
10310;BME280;5200;43.236;27.986;2022-08-18T12:50:41;99519.91;;;28.08;69.33
10310;BME280;5200;43.236;27.986;2022-08-18T12:53:08;99519.72;;;28.24;67.37
10310;BME280;5200;43.236;27.986;2022-08-18T12:55:38;99523.53;;;28.44;67.12
10310;BME280;5200;43.236;27.986;2022-08-18T12:58:06;99521.91;;;28.43;65.09
10310;BME280;5200;43.236;27.986;2022-08-18T13:00:33;99510.00;;;28.39;64.25
10310;BME280;5200;43.236;27.986;2022-08-18T13:03:02;99514.31;;;28.45;64.36
10310;BME280;5200;43.236;27.986;2022-08-18T13:05:29;99515.47;;;28.54;67.64
10310;BME280;5200;43.236;27.986;2022-08-18T13:07:57;99505.72;;;28.74;66.94
10310;BME280;5200;43.236;27.986;2022-08-18T13:10:26;99500.59;;;28.87;67.12
10310;BME280;5200;43.236;27.986;2022-08-18T13:12:53;99498.72;;;28.93;67.40
10310;BME280;5200;43.236;27.986;2022-08-18T13:15:20;99491.66;;;28.92;67.35
10310;BME280;5200;43.236;27.986;2022-08-18T13:17:47;99483.81;;;29.01;67.20
10310;BME280;5200;43.236;27.986;2022-08-18T13:20:16;99488.97;;;29.13;67.05
10310;BME280;5200;43.236;27.986;2022-08-18T13:22:43;99486.78;;;29.30;65.96
10310;BME280;5200;43.236;27.986;2022-08-18T13:25:12;99486.16;;;29.54;65.61
10310;BME280;5200;43.236;27.986;2022-08-18T13:27:39;99490.50;;;29.70;64.77
10310;BME280;5200;43.236;27.986;2022-08-18T13:30:09;99491.06;;;29.67;62.28
10310;BME280;5200;43.236;27.986;2022-08-18T13:32:37;99494.84;;;29.66;62.21
10310;BME280;5200;43.236;27.986;2022-08-18T13:35:06;99494.56;;;29.62;62.38
10310;BME280;5200;43.236;27.986;2022-08-18T13:37:35;99499.22;;;29.41;61.37
10310;BME280;5200;43.236;27.986;2022-08-18T13:40:02;99518.22;;;29.26;61.83
10310;BME280;5200;43.236;27.986;2022-08-18T13:42:29;99522.56;;;29.22;60.95
10310;BME280;5200;43.236;27.986;2022-08-18T13:44:58;99517.16;;;29.12;61.97